createdAt,value
2023-01-18T00:04:43.252Z,6.55
2023-01-18T00:09:35.306Z,6.70
2023-01-18T00:14:25.849Z,7.63
2023-01-18T00:19:19.052Z,7.80
2023-01-18T00:24:12.319Z,6.60
2023-01-18T00:29:05.895Z,7.30
2023-01-18T00:34:00.527Z,7.88
2023-01-18T00:39:01.984Z,7.32
2023-01-18T00:43:53.617Z,8.23
2023-01-18T00:48:48.649Z,7.88
2023-01-18T00:53:41.490Z,7.18
2023-01-18T00:58:35.274Z,7.07
2023-01-18T01:03:25.769Z,8.68
2023-01-18T01:08:21.126Z,8.43
2023-01-18T01:13:26.868Z,7.70
2023-01-18T01:18:35.873Z,9.35
2023-01-18T01:23:41.780Z,9.07
2023-01-18T01:28:35.353Z,8.43
2023-01-18T01:33:27.928Z,7.55
2023-01-18T01:38:18.926Z,8.10
2023-01-18T01:43:17.772Z,8.77
2023-01-18T01:48:11.778Z,8.60
2023-01-18T01:53:07.415Z,9.05
2023-01-18T01:58:04.556Z,7.22
2023-01-18T02:02:59.991Z,7.75
2023-01-18T02:07:52.850Z,8.25
2023-01-18T02:12:50.363Z,5.47
2023-01-18T02:18:08.698Z,8.43
2023-01-18T02:23:35.673Z,7.97
2023-01-18T02:28:38.761Z,8.25
2023-01-18T02:33:37.025Z,7.57
2023-01-18T02:38:34.037Z,7.43
2023-01-18T02:43:42.845Z,7.15
2023-01-18T02:48:39.323Z,6.90
2023-01-18T02:53:31.350Z,6.97
2023-01-18T02:58:26.172Z,6.13
2023-01-18T03:03:23.186Z,5.93
2023-01-18T03:08:22.458Z,6.18
2023-01-18T03:13:20.756Z,6.65
2023-01-18T03:18:19.268Z,6.50
2023-01-18T03:23:32.153Z,6.28
2023-01-18T03:28:39.261Z,6.47
2023-01-18T03:33:49.502Z,5.97
2023-01-18T03:38:45.911Z,6.03
2023-01-18T03:43:41.280Z,6.15
2023-01-18T03:48:43.847Z,6.53
2023-01-18T03:53:54.778Z,6.50
2023-01-18T03:58:55.829Z,8.00
2023-01-18T04:03:48.210Z,9.65
2023-01-18T04:08:45.145Z,9.07
2023-01-18T04:13:39.717Z,8.15
2023-01-18T04:18:32.775Z,9.02
2023-01-18T04:23:24.406Z,8.15
2023-01-18T04:28:14.419Z,8.57
2023-01-18T04:33:04.770Z,9.50
2023-01-18T04:38:01.959Z,6.95
2023-01-18T04:42:58.765Z,7.82
2023-01-18T04:47:52.795Z,8.30
2023-01-18T04:52:50.079Z,7.88
2023-01-18T04:57:47.807Z,8.65
2023-01-18T05:02:41.391Z,8.15
2023-01-18T05:07:34.383Z,8.20
2023-01-18T05:12:24.214Z,9.00
2023-01-18T05:17:16.904Z,9.02
2023-01-18T05:22:09.316Z,9.63
2023-01-18T05:27:01.391Z,7.43
2023-01-18T05:31:55.042Z,7.87
2023-01-18T05:36:52.185Z,7.10
2023-01-18T05:41:45.498Z,7.05
2023-01-18T05:46:36.940Z,8.02
2023-01-18T05:51:34.850Z,7.82
2023-01-18T05:56:46.388Z,7.05
2023-01-18T06:01:36.506Z,9.75
2023-01-18T06:06:40.488Z,10.05
2023-01-18T06:11:35.887Z,12.75
2023-01-18T06:16:56.604Z,13.48
2023-01-18T06:21:48.792Z,12.65
2023-01-18T06:26:38.662Z,14.87
2023-01-18T06:31:29.826Z,14.18
2023-01-18T06:36:31.973Z,13.55
2023-01-18T06:41:34.058Z,14.30
2023-01-18T06:46:29.684Z,12.93
2023-01-18T06:51:26.875Z,11.65
2023-01-18T06:56:26.377Z,11.40
2023-01-18T07:01:21.885Z,12.98
2023-01-18T07:06:11.926Z,11.63
2023-01-18T07:11:15.499Z,13.07
2023-01-18T07:16:07.865Z,11.85
2023-01-18T07:21:14.347Z,12.07
2023-01-18T07:26:20.870Z,11.63
2023-01-18T07:31:12.344Z,12.73
2023-01-18T07:36:02.257Z,11.75
2023-01-18T07:40:52.675Z,10.88
2023-01-18T07:45:46.372Z,10.55
2023-01-18T07:50:44.377Z,10.88
2023-01-18T07:55:49.355Z,11.45
2023-01-18T08:00:41.822Z,9.45
2023-01-18T08:10:41.335Z,9.80
2023-01-18T08:15:42.052Z,10.02
2023-01-18T08:20:47.106Z,9.77
2023-01-18T08:25:41.878Z,10.02
2023-01-18T08:30:36.905Z,10.88
2023-01-18T08:35:33.815Z,11.48
2023-01-18T08:40:33.955Z,11.35
2023-01-18T08:45:27.080Z,7.40
2023-01-18T08:50:20.957Z,8.30
2023-01-18T08:55:18.697Z,9.02
2023-01-18T09:00:30.368Z,11.00
2023-01-18T09:05:25.223Z,9.57
2023-01-18T09:15:15.190Z,8.98
2023-01-18T09:20:09.724Z,9.52
2023-01-18T09:25:00.892Z,9.13
2023-01-18T09:29:58.954Z,7.72
2023-01-18T09:34:53.235Z,7.25
2023-01-18T09:39:51.929Z,7.45
2023-01-18T09:44:48.729Z,7.65
2023-01-18T09:49:55.514Z,7.28
2023-01-18T09:54:55.823Z,7.18
2023-01-18T10:19:35.531Z,5.65
2023-01-18T10:24:38.040Z,6.43
